createdAt,value
2016-09-18T00:00:39.057Z,0
2016-09-18T00:01:19.606Z,0
2016-09-18T00:02:00.153Z,0
2016-09-18T00:02:40.694Z,0
2016-09-18T00:03:21.240Z,0
2016-09-18T00:04:01.789Z,0
2016-09-18T00:04:42.338Z,0
2016-09-18T00:05:22.876Z,0
2016-09-18T00:06:03.438Z,0
2016-09-18T00:06:43.956Z,0
2016-09-18T00:07:24.500Z,0
2016-09-18T00:08:05.042Z,0
2016-09-18T00:08:45.583Z,0
2016-09-18T00:09:26.143Z,0
2016-09-18T00:10:06.692Z,0
2016-09-18T00:10:47.234Z,0
2016-09-18T00:11:27.776Z,0
2016-09-18T00:12:08.325Z,0
2016-09-18T00:12:48.870Z,0
2016-09-18T00:13:29.416Z,0
2016-09-18T00:14:09.958Z,0
2016-09-18T00:14:50.514Z,0
2016-09-18T00:15:31.053Z,0
2016-09-18T00:16:11.595Z,0
2016-09-18T00:16:52.131Z,0
2016-09-18T00:17:32.681Z,0
2016-09-18T00:18:13.221Z,0
2016-09-18T00:18:53.762Z,0
2016-09-18T00:19:34.305Z,0
2016-09-18T00:20:14.853Z,0
2016-09-18T00:20:55.398Z,0
2016-09-18T00:21:35.946Z,0
2016-09-18T00:22:16.470Z,0
2016-09-18T00:22:57.012Z,0
2016-09-18T00:23:37.560Z,0
2016-09-18T00:24:18.102Z,0
2016-09-18T00:24:58.629Z,0
2016-09-18T00:25:39.163Z,0
2016-09-18T00:26:19.710Z,0
2016-09-18T00:27:00.254Z,0
2016-09-18T00:27:40.798Z,0
2016-09-18T00:28:21.343Z,0
2016-09-18T00:29:01.895Z,0
2016-09-18T00:29:42.457Z,0
2016-09-18T00:30:23.004Z,0
2016-09-18T00:31:03.559Z,0
2016-09-18T00:31:44.103Z,0
2016-09-18T00:32:24.648Z,0
2016-09-18T00:33:05.205Z,0
2016-09-18T00:33:45.769Z,0
2016-09-18T00:34:26.314Z,0
2016-09-18T00:35:06.863Z,0
2016-09-18T00:35:47.414Z,0
2016-09-18T00:36:27.958Z,0
2016-09-18T00:37:08.502Z,0
2016-09-18T00:37:49.052Z,0
2016-09-18T00:38:29.584Z,0
2016-09-18T00:39:10.141Z,0
2016-09-18T00:39:50.691Z,0
2016-09-18T00:40:31.230Z,0
2016-09-18T00:41:11.758Z,0
2016-09-18T00:41:52.303Z,0
2016-09-18T00:42:32.837Z,0
2016-09-18T00:43:13.380Z,0
2016-09-18T00:43:53.922Z,0
2016-09-18T00:44:34.459Z,0
2016-09-18T00:45:15.019Z,0
2016-09-18T00:45:55.572Z,0
2016-09-18T00:46:36.111Z,0
2016-09-18T00:47:16.652Z,0
2016-09-18T00:47:57.192Z,0
2016-09-18T00:48:37.722Z,0
2016-09-18T00:49:18.268Z,0
2016-09-18T00:49:58.805Z,0
2016-09-18T00:50:39.348Z,0
2016-09-18T00:51:19.890Z,0
2016-09-18T00:52:00.429Z,0
2016-09-18T00:52:40.976Z,0
2016-09-18T00:53:21.509Z,0
2016-09-18T00:54:02.061Z,0
2016-09-18T00:54:42.596Z,0
2016-09-18T00:55:23.139Z,0
2016-09-18T00:56:03.686Z,0
2016-09-18T00:56:44.217Z,0
2016-09-18T00:57:24.768Z,0
2016-09-18T00:58:05.306Z,0
2016-09-18T00:58:45.847Z,0
2016-09-18T00:59:26.389Z,0
2016-09-18T01:00:06.938Z,0
2016-09-18T01:00:47.492Z,0
2016-09-18T01:01:28.028Z,0
2016-09-18T01:02:08.591Z,0
2016-09-18T01:02:49.138Z,0
2016-09-18T01:03:29.686Z,0
2016-09-18T01:04:10.226Z,0
2016-09-18T01:04:50.760Z,0
2016-09-18T01:05:31.310Z,0
2016-09-18T01:06:11.856Z,0
2016-09-18T01:06:52.391Z,0
2016-09-18T01:07:32.923Z,0
2016-09-18T01:08:13.455Z,0
2016-09-18T01:08:53.997Z,0
2016-09-18T01:09:34.547Z,0
2016-09-18T01:10:15.096Z,0
2016-09-18T01:10:55.626Z,0
2016-09-18T01:11:36.177Z,0
2016-09-18T01:12:16.723Z,0
2016-09-18T01:12:57.242Z,0
2016-09-18T01:13:37.768Z,0
2016-09-18T01:14:18.307Z,0
2016-09-18T01:14:58.851Z,0
2016-09-18T01:15:39.387Z,0
2016-09-18T01:16:19.929Z,0
2016-09-18T01:17:00.481Z,0
2016-09-18T01:17:41.029Z,0
2016-09-18T01:18:21.576Z,0
2016-09-18T01:19:02.129Z,0
2016-09-18T01:19:42.667Z,0
2016-09-18T01:20:23.208Z,0
2016-09-18T01:21:03.746Z,0
2016-09-18T01:21:44.298Z,0
2016-09-18T01:22:24.831Z,0
2016-09-18T01:23:05.379Z,0
2016-09-18T01:23:45.922Z,0
2016-09-18T01:24:26.463Z,0
2016-09-18T01:25:07.020Z,0
2016-09-18T01:25:47.564Z,0
2016-09-18T01:26:28.115Z,0
2016-09-18T01:27:08.658Z,0
2016-09-18T01:27:49.193Z,0
2016-09-18T01:28:29.733Z,0
2016-09-18T01:29:10.278Z,0
2016-09-18T01:29:50.813Z,0
2016-09-18T01:30:31.355Z,0
2016-09-18T01:31:11.888Z,0
2016-09-18T01:31:52.430Z,0
2016-09-18T01:32:32.969Z,0
2016-09-18T01:33:13.520Z,0
2016-09-18T01:33:54.068Z,0
2016-09-18T01:34:34.622Z,0
2016-09-18T01:35:15.167Z,0
2016-09-18T01:35:55.712Z,0
2016-09-18T01:36:36.251Z,0
2016-09-18T01:37:16.789Z,0
2016-09-18T01:37:57.319Z,0
2016-09-18T01:38:37.877Z,0
2016-09-18T01:39:18.394Z,0
2016-09-18T01:39:58.952Z,0
2016-09-18T01:40:39.488Z,0
2016-09-18T01:41:20.037Z,0
2016-09-18T01:42:00.578Z,0
2016-09-18T01:42:41.127Z,0
2016-09-18T01:43:21.655Z,0
2016-09-18T01:44:02.198Z,0
2016-09-18T01:44:42.747Z,0
2016-09-18T01:45:23.298Z,0
2016-09-18T01:46:03.848Z,0
2016-09-18T01:46:44.400Z,0
2016-09-18T01:47:24.956Z,0
2016-09-18T01:48:05.507Z,0
2016-09-18T01:48:46.047Z,0
2016-09-18T01:49:26.578Z,0
2016-09-18T01:50:07.129Z,0
2016-09-18T01:50:47.682Z,0
2016-09-18T01:51:28.208Z,0
2016-09-18T01:52:08.750Z,0
2016-09-18T01:52:49.300Z,0
2016-09-18T01:53:29.840Z,0
2016-09-18T01:54:10.398Z,0
2016-09-18T01:54:50.939Z,0
2016-09-18T01:55:31.492Z,0
2016-09-18T01:56:12.038Z,0
2016-09-18T01:56:52.589Z,0
2016-09-18T01:57:33.126Z,0
2016-09-18T01:58:13.666Z,0
2016-09-18T01:58:54.223Z,0
2016-09-18T01:59:34.768Z,0
2016-09-18T02:00:15.323Z,0
2016-09-18T02:00:55.841Z,0
2016-09-18T02:01:36.373Z,0
2016-09-18T02:02:16.911Z,0
2016-09-18T02:02:57.460Z,0
2016-09-18T02:03:38.006Z,0
2016-09-18T02:04:18.550Z,0
2016-09-18T02:04:59.112Z,0
2016-09-18T02:05:39.651Z,0
2016-09-18T02:06:20.202Z,0
2016-09-18T02:07:00.753Z,0
2016-09-18T02:07:41.300Z,0
2016-09-18T02:08:21.836Z,0
2016-09-18T02:09:02.383Z,0
2016-09-18T02:09:42.930Z,0
2016-09-18T02:10:23.473Z,0
2016-09-18T02:11:04.026Z,0
2016-09-18T02:11:44.570Z,0
2016-09-18T02:12:25.093Z,0
2016-09-18T02:13:05.639Z,0
2016-09-18T02:13:46.176Z,0
2016-09-18T02:14:26.722Z,0
2016-09-18T02:15:07.268Z,0
2016-09-18T02:15:47.816Z,0
2016-09-18T02:16:28.368Z,0
2016-09-18T02:17:08.907Z,0
2016-09-18T02:17:49.457Z,0
2016-09-18T02:18:29.995Z,0
2016-09-18T02:19:10.533Z,0
2016-09-18T02:19:51.069Z,0
2016-09-18T02:20:31.611Z,0
2016-09-18T02:21:12.177Z,0
2016-09-18T02:21:52.700Z,0
2016-09-18T02:22:33.240Z,0
2016-09-18T02:23:13.784Z,0
2016-09-18T02:23:54.337Z,0
2016-09-18T02:24:34.869Z,0
2016-09-18T02:25:15.418Z,0
2016-09-18T02:25:55.964Z,0
2016-09-18T02:26:36.502Z,0
2016-09-18T02:27:17.041Z,0
2016-09-18T02:27:57.581Z,0
2016-09-18T02:28:38.118Z,0
2016-09-18T02:29:18.646Z,0
2016-09-18T02:29:59.190Z,0
2016-09-18T02:30:39.732Z,0
2016-09-18T02:31:20.278Z,0
2016-09-18T02:32:00.835Z,0
2016-09-18T02:32:41.380Z,0
2016-09-18T02:33:21.929Z,0
2016-09-18T02:34:02.479Z,0
2016-09-18T02:34:43.033Z,0
2016-09-18T02:35:23.581Z,0
2016-09-18T02:36:04.122Z,0
2016-09-18T02:36:44.671Z,0
2016-09-18T02:37:25.200Z,0
2016-09-18T02:38:05.749Z,0
2016-09-18T02:38:46.298Z,0
2016-09-18T02:39:26.832Z,0
2016-09-18T02:40:07.376Z,0
2016-09-18T02:40:47.930Z,0
2016-09-18T02:41:28.467Z,0
2016-09-18T02:42:09.006Z,0
2016-09-18T02:42:49.546Z,0
2016-09-18T02:43:30.091Z,0
2016-09-18T02:44:10.649Z,0
2016-09-18T02:44:51.189Z,0
2016-09-18T02:45:31.730Z,0
2016-09-18T02:46:12.276Z,0
2016-09-18T02:46:52.829Z,0
2016-09-18T02:47:33.363Z,0
2016-09-18T02:48:13.913Z,0
2016-09-18T02:48:54.460Z,0
2016-09-18T02:49:35.001Z,0
2016-09-18T02:50:15.528Z,0
2016-09-18T02:50:56.074Z,0
2016-09-18T02:51:36.621Z,0
2016-09-18T02:52:17.155Z,0
2016-09-18T02:52:57.706Z,0
2016-09-18T02:53:38.249Z,0
2016-09-18T02:54:18.768Z,0
2016-09-18T02:54:59.325Z,0
2016-09-18T02:55:39.874Z,0
2016-09-18T02:56:20.417Z,0
2016-09-18T02:57:00.949Z,0
2016-09-18T02:57:41.484Z,0
2016-09-18T02:58:22.016Z,0
2016-09-18T02:59:02.562Z,0
2016-09-18T02:59:43.102Z,0
2016-09-18T03:00:23.653Z,0
2016-09-18T03:01:04.203Z,0
2016-09-18T03:01:44.750Z,0
2016-09-18T03:02:25.295Z,0
2016-09-18T03:03:05.838Z,0
2016-09-18T03:03:46.375Z,0
2016-09-18T03:04:26.926Z,0
2016-09-18T03:05:07.481Z,0
2016-09-18T03:05:48.026Z,0
2016-09-18T03:06:28.573Z,0
2016-09-18T03:07:09.126Z,0
2016-09-18T03:07:49.666Z,0
2016-09-18T03:08:30.207Z,0
2016-09-18T03:09:10.743Z,0
2016-09-18T03:09:51.295Z,0
2016-09-18T03:10:31.837Z,0
2016-09-18T03:11:12.378Z,0
2016-09-18T03:11:52.923Z,0
2016-09-18T03:12:33.468Z,0
2016-09-18T03:13:14.022Z,0
2016-09-18T03:13:54.564Z,0
2016-09-18T03:14:35.091Z,0
2016-09-18T03:15:15.635Z,0
2016-09-18T03:15:56.179Z,0
2016-09-18T03:16:36.717Z,0
2016-09-18T03:17:17.268Z,0
2016-09-18T03:17:57.808Z,0
2016-09-18T03:18:38.347Z,0
2016-09-18T03:19:18.889Z,0
2016-09-18T03:19:59.432Z,0
2016-09-18T03:20:39.983Z,0
2016-09-18T03:21:20.529Z,0
2016-09-18T03:22:01.077Z,0
2016-09-18T03:22:41.628Z,0
2016-09-18T03:23:22.173Z,0
2016-09-18T03:24:02.729Z,0
2016-09-18T03:24:43.280Z,0
2016-09-18T03:25:23.830Z,0
2016-09-18T03:26:04.372Z,0
2016-09-18T03:26:44.913Z,0
2016-09-18T03:27:25.453Z,0
2016-09-18T03:28:06.001Z,0
2016-09-18T03:28:46.539Z,0
2016-09-18T03:29:27.078Z,0
2016-09-18T03:30:07.629Z,0
2016-09-18T03:30:48.166Z,0
2016-09-18T03:31:28.704Z,0
2016-09-18T03:32:09.240Z,0
2016-09-18T03:32:49.791Z,0
2016-09-18T03:33:30.341Z,0
2016-09-18T03:34:10.894Z,0
2016-09-18T03:34:51.445Z,0
2016-09-18T03:35:32.003Z,0
2016-09-18T03:36:12.552Z,0
2016-09-18T03:36:53.103Z,0
2016-09-18T03:37:33.638Z,0
2016-09-18T03:38:14.188Z,0
2016-09-18T03:38:54.793Z,0
2016-09-18T03:39:35.321Z,0
2016-09-18T03:40:15.856Z,0
2016-09-18T03:40:56.403Z,0
2016-09-18T03:41:36.954Z,0
2016-09-18T03:42:17.499Z,0
2016-09-18T03:42:58.041Z,0
2016-09-18T03:43:38.588Z,0
2016-09-18T03:44:19.137Z,0
2016-09-18T03:44:59.682Z,0
2016-09-18T03:45:40.237Z,0
2016-09-18T03:46:20.786Z,0
2016-09-18T03:47:01.323Z,0
2016-09-18T03:47:41.867Z,0
2016-09-18T03:48:22.404Z,0
2016-09-18T03:49:02.951Z,0
2016-09-18T03:49:43.501Z,0
2016-09-18T03:50:24.030Z,0
2016-09-18T03:51:04.576Z,0
2016-09-18T03:51:45.112Z,0
2016-09-18T03:52:25.635Z,0
2016-09-18T03:53:06.186Z,0
2016-09-18T03:53:46.733Z,0
2016-09-18T03:54:27.277Z,0
2016-09-18T03:55:07.839Z,0
2016-09-18T03:55:48.359Z,0
2016-09-18T03:56:28.898Z,0
2016-09-18T03:57:09.445Z,0
2016-09-18T03:57:49.970Z,0
2016-09-18T03:58:30.529Z,0
2016-09-18T03:59:11.067Z,0
2016-09-18T03:59:51.610Z,0
2016-09-18T04:00:32.147Z,0
2016-09-18T04:01:12.689Z,0
2016-09-18T04:01:53.240Z,0
2016-09-18T04:02:33.785Z,0
2016-09-18T04:03:14.328Z,0
2016-09-18T04:03:54.865Z,0
2016-09-18T04:04:35.403Z,0
2016-09-18T04:05:15.944Z,0
2016-09-18T04:05:56.491Z,0
2016-09-18T04:06:37.036Z,0
2016-09-18T04:07:17.583Z,0
2016-09-18T04:07:58.124Z,0
2016-09-18T04:08:38.662Z,0
2016-09-18T04:09:19.207Z,0
2016-09-18T04:09:59.748Z,0
2016-09-18T04:10:40.302Z,0
2016-09-18T04:11:20.857Z,0
2016-09-18T04:12:01.396Z,0
2016-09-18T04:12:41.946Z,0
2016-09-18T04:13:22.463Z,0
2016-09-18T04:14:03.010Z,0
2016-09-18T04:14:43.550Z,0
2016-09-18T04:15:24.088Z,0
2016-09-18T04:16:04.633Z,0
2016-09-18T04:16:45.184Z,0
2016-09-18T04:17:25.760Z,0
2016-09-18T04:18:06.302Z,0
2016-09-18T04:18:46.849Z,0
2016-09-18T04:19:27.396Z,0
2016-09-18T04:20:07.951Z,0
2016-09-18T04:20:48.494Z,0
2016-09-18T04:21:29.044Z,0
2016-09-18T04:22:09.586Z,0
2016-09-18T04:22:50.110Z,0
2016-09-18T04:23:30.662Z,0
2016-09-18T04:24:11.186Z,0
2016-09-18T04:24:51.750Z,0
2016-09-18T04:25:32.312Z,0
2016-09-18T04:26:12.843Z,0
2016-09-18T04:26:53.388Z,0
2016-09-18T04:27:33.923Z,0
2016-09-18T04:28:14.472Z,0
2016-09-18T04:28:55.021Z,0
2016-09-18T04:29:35.559Z,0
2016-09-18T04:30:16.131Z,0
2016-09-18T04:30:56.675Z,0
2016-09-18T04:31:37.214Z,0
2016-09-18T04:32:17.755Z,0
2016-09-18T04:32:58.305Z,0
2016-09-18T04:33:38.844Z,0
2016-09-18T04:34:19.381Z,0
2016-09-18T04:34:59.921Z,0
2016-09-18T04:35:40.474Z,0
2016-09-18T04:36:21.001Z,0
2016-09-18T04:37:01.560Z,0
2016-09-18T04:37:42.087Z,0
2016-09-18T04:38:22.629Z,0
2016-09-18T04:39:03.169Z,0
2016-09-18T04:39:43.714Z,0
2016-09-18T04:40:24.263Z,0
2016-09-18T04:41:04.813Z,0
2016-09-18T04:41:45.361Z,0
2016-09-18T04:42:25.902Z,0
2016-09-18T04:43:06.435Z,0
2016-09-18T04:43:46.990Z,0
2016-09-18T04:44:27.568Z,0
2016-09-18T04:45:08.119Z,0
2016-09-18T04:45:48.638Z,0
2016-09-18T04:46:29.186Z,0
2016-09-18T04:47:09.719Z,0
2016-09-18T04:47:50.264Z,0
2016-09-18T04:48:30.797Z,0
2016-09-18T04:49:11.338Z,0
2016-09-18T04:49:51.885Z,4
2016-09-18T04:50:32.431Z,4
2016-09-18T04:51:12.977Z,4
2016-09-18T04:51:53.524Z,4
2016-09-18T04:52:34.059Z,4
2016-09-18T04:53:14.594Z,4
2016-09-18T04:53:55.151Z,4
2016-09-18T04:54:35.689Z,4
2016-09-18T04:55:16.231Z,4
2016-09-18T04:55:56.770Z,8
2016-09-18T04:56:37.305Z,8
2016-09-18T04:57:17.847Z,8
2016-09-18T04:57:58.394Z,12
2016-09-18T04:58:38.945Z,8
2016-09-18T04:59:19.515Z,12
2016-09-18T05:00:00.058Z,12
2016-09-18T05:00:40.581Z,12
2016-09-18T05:01:21.122Z,12
2016-09-18T05:02:01.665Z,12
2016-09-18T05:02:42.209Z,12
2016-09-18T05:03:22.750Z,12
2016-09-18T05:04:03.296Z,12
2016-09-18T05:04:43.846Z,12
2016-09-18T05:05:24.400Z,16
2016-09-18T05:06:04.933Z,20
2016-09-18T05:06:45.481Z,20
2016-09-18T05:07:26.039Z,28
2016-09-18T05:08:06.601Z,32
2016-09-18T05:08:47.153Z,36
2016-09-18T05:09:27.671Z,40
2016-09-18T05:10:08.218Z,44
2016-09-18T05:10:48.751Z,40
2016-09-18T05:11:29.295Z,36
2016-09-18T05:12:09.848Z,36
2016-09-18T05:12:50.397Z,36
2016-09-18T05:13:30.952Z,36
2016-09-18T05:14:11.500Z,36
2016-09-18T05:14:52.015Z,36
2016-09-18T05:17:26.613Z,64
2016-09-18T05:18:07.137Z,68
2016-09-18T05:18:47.652Z,76
2016-09-18T05:19:28.188Z,88
2016-09-18T05:20:08.762Z,92
2016-09-18T05:20:49.291Z,92
2016-09-18T05:21:29.820Z,88
2016-09-18T05:22:10.379Z,80
2016-09-18T05:22:50.900Z,80
2016-09-18T05:23:31.440Z,84
2016-09-18T05:24:11.990Z,88
2016-09-18T05:24:52.518Z,88
2016-09-18T05:25:33.359Z,88
2016-09-18T05:26:13.880Z,84
2016-09-18T05:26:54.420Z,76
2016-09-18T05:27:34.951Z,76
2016-09-18T05:28:15.493Z,76
2016-09-18T05:28:56.018Z,80
2016-09-18T05:29:36.538Z,96
2016-09-18T05:30:17.081Z,104
2016-09-18T05:30:57.632Z,100
2016-09-18T05:31:38.186Z,104
2016-09-18T05:32:18.701Z,100
2016-09-18T05:32:59.240Z,120
2016-09-18T05:33:39.789Z,132
2016-09-18T05:34:20.330Z,136
2016-09-18T05:35:01.016Z,160
2016-09-18T05:35:41.558Z,168
2016-09-18T05:36:22.103Z,172
2016-09-18T05:37:02.648Z,192
2016-09-18T05:37:43.196Z,192
2016-09-18T05:38:23.729Z,204
2016-09-18T05:39:04.279Z,216
2016-09-18T05:39:44.836Z,208
2016-09-18T05:40:25.371Z,236
2016-09-18T05:41:05.918Z,260
2016-09-18T05:41:46.454Z,236
2016-09-18T05:42:26.997Z,252
2016-09-18T05:43:07.524Z,272
2016-09-18T05:43:48.350Z,312
2016-09-18T05:44:28.908Z,328
2016-09-18T05:45:09.461Z,372
2016-09-18T05:45:50.004Z,408
2016-09-18T05:46:30.553Z,444
2016-09-18T05:47:11.095Z,448
2016-09-18T05:47:51.644Z,464
2016-09-18T05:48:32.193Z,476
2016-09-18T05:49:12.744Z,500
2016-09-18T05:49:53.282Z,528
2016-09-18T05:50:33.813Z,540
2016-09-18T05:51:14.361Z,544
2016-09-18T05:51:54.891Z,496
2016-09-18T05:52:35.437Z,492
2016-09-18T05:53:15.978Z,496
2016-09-18T05:53:56.527Z,444
2016-09-18T05:54:37.079Z,480
2016-09-18T05:55:17.640Z,512
2016-09-18T05:55:58.449Z,520
2016-09-18T05:56:38.995Z,516
2016-09-18T05:57:19.535Z,556
2016-09-18T05:58:00.081Z,572
2016-09-18T05:58:40.625Z,568
2016-09-18T05:59:21.167Z,604
2016-09-18T06:00:01.688Z,688
2016-09-18T06:00:42.237Z,780
2016-09-18T06:01:22.776Z,860
2016-09-18T06:02:03.306Z,900
2016-09-18T06:02:43.866Z,952
2016-09-18T06:03:24.404Z,960
2016-09-18T06:04:04.949Z,1068
2016-09-18T06:04:45.493Z,1112
2016-09-18T06:05:26.033Z,992
2016-09-18T06:06:06.565Z,912
2016-09-18T06:06:47.107Z,952
2016-09-18T06:07:27.649Z,1044
2016-09-18T06:08:08.192Z,1176
2016-09-18T06:08:48.748Z,1232
2016-09-18T06:09:29.282Z,1296
2016-09-18T06:10:09.834Z,1268
2016-09-18T06:10:50.377Z,1200
2016-09-18T06:11:30.919Z,1148
2016-09-18T06:12:11.445Z,1276
2016-09-18T06:12:51.991Z,1432
2016-09-18T06:13:32.522Z,1556
2016-09-18T06:14:13.068Z,1656
2016-09-18T06:14:53.611Z,1756
2016-09-18T06:15:34.150Z,1788
2016-09-18T06:16:14.697Z,1840
2016-09-18T06:16:55.249Z,1980
2016-09-18T06:17:35.798Z,2092
2016-09-18T06:18:16.346Z,2156
2016-09-18T06:18:56.882Z,2160
2016-09-18T06:19:37.421Z,2180
2016-09-18T06:20:17.974Z,2236
2016-09-18T06:20:58.517Z,2268
2016-09-18T06:21:39.064Z,2084
2016-09-18T06:22:19.598Z,2068
2016-09-18T06:23:00.157Z,2280
2016-09-18T06:23:40.696Z,2512
2016-09-18T06:24:21.235Z,2572
2016-09-18T06:25:01.779Z,2668
2016-09-18T06:25:42.323Z,2564
2016-09-18T06:26:22.868Z,2676
2016-09-18T06:27:03.415Z,2676
2016-09-18T06:27:43.976Z,2668
2016-09-18T06:28:24.512Z,2636
2016-09-18T06:29:05.037Z,2652
2016-09-18T06:29:45.578Z,2588
2016-09-18T06:30:26.122Z,2308
2016-09-18T06:31:06.643Z,2056
2016-09-18T06:31:47.187Z,1776
2016-09-18T06:32:27.729Z,1640
2016-09-18T06:33:08.271Z,1632
2016-09-18T06:33:48.829Z,1572
2016-09-18T06:34:29.372Z,1508
2016-09-18T06:35:09.926Z,1444
2016-09-18T06:35:50.472Z,1496
2016-09-18T06:36:31.020Z,1892
2016-09-18T06:37:11.565Z,2080
2016-09-18T06:37:52.103Z,2228
2016-09-18T06:38:32.651Z,2236
2016-09-18T06:39:13.227Z,2260
2016-09-18T06:39:53.726Z,2292
2016-09-18T06:40:34.269Z,2232
2016-09-18T06:41:14.809Z,2016
2016-09-18T06:41:55.353Z,1840
2016-09-18T06:42:35.892Z,1900
2016-09-18T06:43:16.439Z,1912
2016-09-18T06:43:57.328Z,1640
2016-09-18T06:44:37.888Z,1696
2016-09-18T06:45:18.584Z,1868
2016-09-18T06:45:59.122Z,1996
2016-09-18T06:46:39.671Z,2156
2016-09-18T06:47:20.210Z,2208
2016-09-18T06:48:00.756Z,2620
2016-09-18T06:48:41.675Z,2868
2016-09-18T06:49:22.230Z,2996
2016-09-18T06:50:02.777Z,3092
2016-09-18T06:50:43.316Z,2832
2016-09-18T06:51:23.858Z,2800
2016-09-18T06:52:04.408Z,3236
2016-09-18T06:52:44.947Z,3100
2016-09-18T06:53:25.488Z,2992
2016-09-18T06:54:06.027Z,3004
2016-09-18T06:54:46.578Z,3012
2016-09-18T06:55:27.132Z,3048
2016-09-18T06:56:07.670Z,2936
2016-09-18T06:56:48.203Z,3112
2016-09-18T06:57:28.775Z,3284
2016-09-18T06:58:09.318Z,3288
2016-09-18T06:58:49.843Z,3576
2016-09-18T06:59:30.385Z,3580
2016-09-18T07:00:10.921Z,3640
2016-09-18T07:00:51.451Z,3936
2016-09-18T07:01:32.017Z,4280
2016-09-18T07:02:12.566Z,4716
2016-09-18T07:02:53.108Z,4916
2016-09-18T07:03:33.662Z,5188
2016-09-18T07:04:14.196Z,5368
2016-09-18T07:04:54.746Z,5368
2016-09-18T07:05:35.295Z,5360
2016-09-18T07:06:16.097Z,5344
2016-09-18T07:06:56.639Z,4844
2016-09-18T07:07:37.332Z,4944
2016-09-18T07:08:17.894Z,4872
2016-09-18T07:08:58.438Z,4540
2016-09-18T07:09:39.226Z,4148
2016-09-18T07:10:19.779Z,3756
2016-09-18T07:11:00.314Z,3768
2016-09-18T07:11:40.861Z,3740
2016-09-18T07:12:21.408Z,3652
2016-09-18T07:13:01.936Z,3696
2016-09-18T07:13:42.493Z,3960
2016-09-18T07:14:23.025Z,3840
2016-09-18T07:15:03.568Z,3572
2016-09-18T07:15:44.118Z,3612
2016-09-18T07:16:24.659Z,3612
2016-09-18T07:17:05.198Z,3356
2016-09-18T07:17:45.754Z,3044
2016-09-18T07:18:26.569Z,2968
2016-09-18T07:19:07.114Z,3020
2016-09-18T07:19:47.651Z,3312
2016-09-18T07:20:28.193Z,3776
2016-09-18T07:21:08.735Z,4244
2016-09-18T07:21:49.264Z,4860
2016-09-18T07:22:29.809Z,5152
2016-09-18T07:23:10.346Z,5484
2016-09-18T07:23:50.865Z,5828
2016-09-18T07:24:31.411Z,6252
2016-09-18T07:25:11.944Z,6512
2016-09-18T07:25:52.476Z,6672
2016-09-18T07:26:33.014Z,6628
2016-09-18T07:27:13.563Z,6660
2016-09-18T07:27:54.096Z,6660
2016-09-18T07:28:34.643Z,6636
2016-09-18T07:29:15.165Z,6728
2016-09-18T07:29:55.708Z,6772
2016-09-18T07:30:36.239Z,6528
2016-09-18T07:31:16.793Z,6764
2016-09-18T07:31:57.312Z,6988
2016-09-18T07:32:37.848Z,7032
2016-09-18T07:33:18.470Z,7436
2016-09-18T07:33:59.057Z,7580
2016-09-18T07:34:39.604Z,7560
2016-09-18T07:35:20.152Z,7664
2016-09-18T07:36:00.830Z,7740
2016-09-18T07:36:41.381Z,7584
2016-09-18T07:37:21.927Z,7432
2016-09-18T07:38:02.481Z,7380
2016-09-18T07:38:43.014Z,7608
2016-09-18T07:39:23.514Z,8132
2016-09-18T07:40:04.076Z,9100
2016-09-18T07:40:44.608Z,9372
2016-09-18T07:41:25.132Z,9420
2016-09-18T07:42:05.669Z,9288
2016-09-18T07:42:46.198Z,8976
2016-09-18T07:43:26.696Z,8940
2016-09-18T07:44:07.245Z,8708
2016-09-18T07:44:47.795Z,8848
2016-09-18T07:45:28.362Z,9256
2016-09-18T07:46:08.890Z,9768
2016-09-18T07:46:49.448Z,9520
2016-09-18T07:47:29.991Z,9348
2016-09-18T07:48:10.528Z,8920
2016-09-18T07:48:51.104Z,7956
2016-09-18T07:49:31.584Z,7344
2016-09-18T07:50:12.122Z,7028
2016-09-18T07:50:52.689Z,6648
2016-09-18T07:51:33.279Z,6324
2016-09-18T07:52:13.863Z,6216
2016-09-18T07:52:54.513Z,6244
2016-09-18T07:53:35.158Z,6488
2016-09-18T07:54:15.610Z,6548
2016-09-18T07:54:56.129Z,5968
2016-09-18T07:55:36.681Z,5208
2016-09-18T07:56:17.224Z,5636
2016-09-18T07:56:57.841Z,5200
2016-09-18T07:57:38.367Z,4992
2016-09-18T07:58:18.914Z,4860
2016-09-18T07:58:59.504Z,5004
2016-09-18T07:59:40.015Z,4972
2016-09-18T08:00:20.544Z,4892
2016-09-18T08:01:01.078Z,4732
2016-09-18T08:01:41.634Z,5032
2016-09-18T08:02:22.172Z,5196
2016-09-18T08:03:02.721Z,5472
2016-09-18T08:03:43.245Z,5880
2016-09-18T08:04:23.775Z,5792
2016-09-18T08:05:04.550Z,5604
2016-09-18T08:05:45.088Z,5692
2016-09-18T08:06:25.627Z,5772
2016-09-18T08:07:06.148Z,6188
2016-09-18T08:07:46.714Z,7672
2016-09-18T08:08:27.242Z,9132
2016-09-18T08:09:07.772Z,10776
2016-09-18T08:09:48.317Z,11568
2016-09-18T08:10:28.856Z,11632
2016-09-18T08:11:09.397Z,12164
2016-09-18T08:11:49.944Z,12264
2016-09-18T08:12:30.487Z,11668
2016-09-18T08:13:11.030Z,10868
2016-09-18T08:13:51.581Z,10460
2016-09-18T08:14:32.127Z,10112
2016-09-18T08:15:12.816Z,10000
2016-09-18T08:15:53.444Z,9980
2016-09-18T08:16:33.995Z,9984
2016-09-18T08:17:14.543Z,9844
2016-09-18T08:17:55.092Z,9684
2016-09-18T08:18:35.657Z,9536
2016-09-18T08:19:16.206Z,9364
2016-09-18T08:19:56.749Z,8972
2016-09-18T08:20:37.303Z,8572
2016-09-18T08:21:17.843Z,8532
2016-09-18T08:21:58.365Z,8604
2016-09-18T08:22:38.928Z,8600
2016-09-18T08:23:19.481Z,8208
2016-09-18T08:24:00.032Z,8152
2016-09-18T08:24:40.584Z,8380
2016-09-18T08:25:21.123Z,8604
2016-09-18T08:26:01.685Z,8568
2016-09-18T08:26:42.237Z,8936
2016-09-18T08:27:22.789Z,8992
2016-09-18T08:28:03.333Z,9116
2016-09-18T08:28:43.890Z,10012
2016-09-18T08:29:24.427Z,10824
2016-09-18T08:30:04.978Z,11620
2016-09-18T08:30:45.530Z,11792
2016-09-18T08:31:26.069Z,11492
2016-09-18T08:32:06.616Z,11292
2016-09-18T08:32:47.166Z,11016
2016-09-18T08:33:27.716Z,11400
2016-09-18T08:34:08.265Z,11696
2016-09-18T08:34:48.815Z,11860
2016-09-18T08:35:29.360Z,11860
2016-09-18T08:36:09.920Z,11748
2016-09-18T08:36:50.467Z,11200
2016-09-18T08:37:30.998Z,11400
2016-09-18T08:38:11.548Z,11380
2016-09-18T08:38:52.102Z,11268
2016-09-18T08:39:32.642Z,11300
2016-09-18T08:40:13.187Z,11196
2016-09-18T08:40:53.762Z,11324
2016-09-18T08:41:34.308Z,11428
2016-09-18T08:42:14.857Z,11060
2016-09-18T08:42:55.411Z,11180
2016-09-18T08:43:35.936Z,10992
2016-09-18T08:44:16.479Z,11140
2016-09-18T08:44:57.030Z,11148
2016-09-18T08:45:37.589Z,11084
2016-09-18T08:46:18.134Z,10844
2016-09-18T08:46:58.682Z,10872
2016-09-18T08:47:39.231Z,10856
2016-09-18T08:48:19.772Z,10764
2016-09-18T08:49:00.328Z,10564
2016-09-18T08:49:40.876Z,10504
2016-09-18T08:50:21.424Z,10572
2016-09-18T08:51:01.975Z,10524
2016-09-18T08:51:42.527Z,10352
2016-09-18T08:52:23.078Z,9892
2016-09-18T08:53:03.628Z,10448
2016-09-18T08:53:44.180Z,11736
2016-09-18T08:54:24.728Z,11792
2016-09-18T08:55:05.281Z,10712
2016-09-18T08:55:45.832Z,11048
2016-09-18T08:56:26.443Z,10436
2016-09-18T08:57:07.048Z,9672
2016-09-18T08:57:47.598Z,8624
2016-09-18T08:58:28.150Z,8744
2016-09-18T08:59:08.700Z,9020
2016-09-18T08:59:49.245Z,8952
2016-09-18T09:00:30.056Z,8636
2016-09-18T09:01:10.604Z,8840
2016-09-18T09:01:51.147Z,9828
2016-09-18T09:02:31.689Z,10252
2016-09-18T09:03:12.242Z,8784
2016-09-18T09:03:52.791Z,8076
2016-09-18T09:04:33.328Z,10872
2016-09-18T09:05:13.870Z,10136
2016-09-18T09:05:54.420Z,9624
2016-09-18T09:06:34.972Z,9708
2016-09-18T09:07:15.523Z,9920
2016-09-18T09:07:56.073Z,9804
2016-09-18T09:08:36.625Z,9476
2016-09-18T09:09:17.171Z,9252
2016-09-18T09:09:57.719Z,9420
2016-09-18T09:10:38.264Z,9688
2016-09-18T09:11:18.811Z,9944
2016-09-18T09:11:59.355Z,9952
2016-09-18T09:12:39.906Z,9824
2016-09-18T09:13:20.457Z,9808
2016-09-18T09:14:01.011Z,10120
2016-09-18T09:14:41.559Z,10512
2016-09-18T09:15:22.108Z,11808
2016-09-18T09:16:02.763Z,10672
2016-09-18T09:16:43.261Z,9540
2016-09-18T09:17:23.799Z,9128
2016-09-18T09:18:04.338Z,8856
2016-09-18T09:18:44.875Z,8760
2016-09-18T09:19:25.415Z,8612
2016-09-18T09:20:05.964Z,8488
2016-09-18T09:20:46.516Z,8852
2016-09-18T09:21:27.048Z,8904
2016-09-18T09:22:07.608Z,8816
2016-09-18T09:22:48.153Z,8908
2016-09-18T09:23:28.700Z,8956
2016-09-18T09:24:09.217Z,9300
2016-09-18T09:24:49.757Z,9668
2016-09-18T09:25:30.293Z,9408
2016-09-18T09:26:10.837Z,9220
2016-09-18T09:26:51.382Z,9052
2016-09-18T09:27:31.921Z,9276
2016-09-18T09:28:12.460Z,9124
2016-09-18T09:28:53.002Z,9120
2016-09-18T09:29:33.519Z,8552
2016-09-18T09:30:14.067Z,7628
2016-09-18T09:30:54.617Z,6768
2016-09-18T09:31:35.150Z,6888
2016-09-18T09:32:15.682Z,6328
2016-09-18T09:32:56.233Z,5476
2016-09-18T09:33:36.779Z,5224